sensor_id;sensor_type;location;lat;lon;timestamp;temperature;humidity
15991;DHT22;8100;50.994;4.538;2022-07-06T00:01:16;12.40;99.90
15991;DHT22;8100;50.994;4.538;2022-07-06T00:04:03;12.30;99.90
15991;DHT22;8100;50.994;4.538;2022-07-06T00:06:52;12.30;99.90
15991;DHT22;8100;50.994;4.538;2022-07-06T00:09:39;12.30;99.90
15991;DHT22;8100;50.994;4.538;2022-07-06T00:12:26;12.30;99.90
15991;DHT22;8100;50.994;4.538;2022-07-06T00:15:14;12.30;99.90
15991;DHT22;8100;50.994;4.538;2022-07-06T00:18:01;12.30;99.90
15991;DHT22;8100;50.994;4.538;2022-07-06T00:20:48;12.30;99.90
15991;DHT22;8100;50.994;4.538;2022-07-06T00:23:37;12.20;99.90
15991;DHT22;8100;50.994;4.538;2022-07-06T00:26:24;12.20;99.90
15991;DHT22;8100;50.994;4.538;2022-07-06T00:29:11;12.30;99.90
15991;DHT22;8100;50.994;4.538;2022-07-06T00:31:58;12.30;99.90
15991;DHT22;8100;50.994;4.538;2022-07-06T00:34:46;12.20;99.90
15991;DHT22;8100;50.994;4.538;2022-07-06T00:37:33;12.30;99.90
15991;DHT22;8100;50.994;4.538;2022-07-06T00:40:22;12.40;99.90
15991;DHT22;8100;50.994;4.538;2022-07-06T00:43:09;12.30;99.90
15991;DHT22;8100;50.994;4.538;2022-07-06T00:45:56;12.20;99.90
15991;DHT22;8100;50.994;4.538;2022-07-06T00:48:43;12.20;99.90
15991;DHT22;8100;50.994;4.538;2022-07-06T00:51:33;12.00;99.90
15991;DHT22;8100;50.994;4.538;2022-07-06T00:54:23;11.90;99.90
15991;DHT22;8100;50.994;4.538;2022-07-06T00:57:11;11.80;99.90
15991;DHT22;8100;50.994;4.538;2022-07-06T01:00:00;11.80;99.90
15991;DHT22;8100;50.994;4.538;2022-07-06T01:02:49;11.80;99.90
15991;DHT22;8100;50.994;4.538;2022-07-06T01:05:36;11.80;99.90
15991;DHT22;8100;50.994;4.538;2022-07-06T01:08:23;11.70;99.90
15991;DHT22;8100;50.994;4.538;2022-07-06T01:11:11;11.70;99.90
15991;DHT22;8100;50.994;4.538;2022-07-06T01:14:01;11.60;99.90
15991;DHT22;8100;50.994;4.538;2022-07-06T01:16:48;11.60;99.90
15991;DHT22;8100;50.994;4.538;2022-07-06T01:19:36;11.60;99.90
15991;DHT22;8100;50.994;4.538;2022-07-06T01:22:24;11.60;99.90
15991;DHT22;8100;50.994;4.538;2022-07-06T01:25:12;11.70;99.90
15991;DHT22;8100;50.994;4.538;2022-07-06T01:27:59;11.80;99.90
15991;DHT22;8100;50.994;4.538;2022-07-06T01:30:47;11.80;99.90
15991;DHT22;8100;50.994;4.538;2022-07-06T01:33:34;12.00;99.90
15991;DHT22;8100;50.994;4.538;2022-07-06T01:36:23;12.10;99.90
15991;DHT22;8100;50.994;4.538;2022-07-06T01:39:11;12.10;99.90
15991;DHT22;8100;50.994;4.538;2022-07-06T01:41:59;12.30;99.90
15991;DHT22;8100;50.994;4.538;2022-07-06T01:44:46;12.30;99.90
15991;DHT22;8100;50.994;4.538;2022-07-06T01:47:33;12.30;99.90
15991;DHT22;8100;50.994;4.538;2022-07-06T01:50:20;12.30;99.90
15991;DHT22;8100;50.994;4.538;2022-07-06T01:53:08;12.20;99.90
15991;DHT22;8100;50.994;4.538;2022-07-06T01:55:56;12.20;99.90
15991;DHT22;8100;50.994;4.538;2022-07-06T01:58:43;12.20;99.90
15991;DHT22;8100;50.994;4.538;2022-07-06T02:01:31;12.20;99.90
15991;DHT22;8100;50.994;4.538;2022-07-06T02:04:18;12.10;99.90
15991;DHT22;8100;50.994;4.538;2022-07-06T02:07:05;12.10;99.90
15991;DHT22;8100;50.994;4.538;2022-07-06T02:09:52;12.00;99.90
15991;DHT22;8100;50.994;4.538;2022-07-06T02:12:41;11.90;99.90
15991;DHT22;8100;50.994;4.538;2022-07-06T02:15:28;11.80;99.90
15991;DHT22;8100;50.994;4.538;2022-07-06T02:18:16;11.70;99.90
15991;DHT22;8100;50.994;4.538;2022-07-06T02:21:03;11.50;99.90
15991;DHT22;8100;50.994;4.538;2022-07-06T02:23:51;11.50;99.90
15991;DHT22;8100;50.994;4.538;2022-07-06T02:26:38;11.40;99.90
15991;DHT22;8100;50.994;4.538;2022-07-06T02:29:27;11.50;99.90
15991;DHT22;8100;50.994;4.538;2022-07-06T02:32:14;11.60;99.90
15991;DHT22;8100;50.994;4.538;2022-07-06T02:35:01;11.60;99.90
15991;DHT22;8100;50.994;4.538;2022-07-06T02:37:48;11.70;99.90
15991;DHT22;8100;50.994;4.538;2022-07-06T02:40:36;11.80;99.90
15991;DHT22;8100;50.994;4.538;2022-07-06T02:43:24;11.80;99.90
15991;DHT22;8100;50.994;4.538;2022-07-06T02:46:12;11.90;99.90
15991;DHT22;8100;50.994;4.538;2022-07-06T02:49:00;11.70;99.90
15991;DHT22;8100;50.994;4.538;2022-07-06T02:51:47;11.60;99.90
15991;DHT22;8100;50.994;4.538;2022-07-06T02:54:34;11.50;99.90
15991;DHT22;8100;50.994;4.538;2022-07-06T02:57:21;11.40;99.90
15991;DHT22;8100;50.994;4.538;2022-07-06T03:00:09;11.30;99.90
15991;DHT22;8100;50.994;4.538;2022-07-06T03:02:58;11.20;99.90
15991;DHT22;8100;50.994;4.538;2022-07-06T03:05:45;11.20;99.90
15991;DHT22;8100;50.994;4.538;2022-07-06T03:08:34;11.20;99.90
15991;DHT22;8100;50.994;4.538;2022-07-06T03:11:21;11.20;99.90
15991;DHT22;8100;50.994;4.538;2022-07-06T03:14:09;11.20;99.90
15991;DHT22;8100;50.994;4.538;2022-07-06T03:16:56;11.10;99.90
15991;DHT22;8100;50.994;4.538;2022-07-06T03:19:44;11.00;99.90
15991;DHT22;8100;50.994;4.538;2022-07-06T03:22:32;11.00;99.90
15991;DHT22;8100;50.994;4.538;2022-07-06T03:25:19;11.00;99.90
15991;DHT22;8100;50.994;4.538;2022-07-06T03:28:06;10.90;99.90
15991;DHT22;8100;50.994;4.538;2022-07-06T03:30:54;11.00;99.90
15991;DHT22;8100;50.994;4.538;2022-07-06T03:33:42;11.10;99.90
15991;DHT22;8100;50.994;4.538;2022-07-06T03:36:30;11.10;99.90
15991;DHT22;8100;50.994;4.538;2022-07-06T03:39:17;11.20;99.90
15991;DHT22;8100;50.994;4.538;2022-07-06T03:42:05;11.10;99.90
15991;DHT22;8100;50.994;4.538;2022-07-06T03:44:52;11.00;99.90
15991;DHT22;8100;50.994;4.538;2022-07-06T03:47:39;11.00;99.90
15991;DHT22;8100;50.994;4.538;2022-07-06T03:50:26;11.00;99.90
15991;DHT22;8100;50.994;4.538;2022-07-06T03:53:15;11.00;99.90
15991;DHT22;8100;50.994;4.538;2022-07-06T03:56:02;11.00;99.90
15991;DHT22;8100;50.994;4.538;2022-07-06T03:59:07;11.00;99.90
15991;DHT22;8100;50.994;4.538;2022-07-06T04:01:55;11.10;99.90
15991;DHT22;8100;50.994;4.538;2022-07-06T04:04:42;11.20;99.90
15991;DHT22;8100;50.994;4.538;2022-07-06T04:07:29;11.40;99.90
15991;DHT22;8100;50.994;4.538;2022-07-06T04:10:18;11.50;99.90
15991;DHT22;8100;50.994;4.538;2022-07-06T04:13:05;11.50;99.90
15991;DHT22;8100;50.994;4.538;2022-07-06T04:15:52;11.60;99.90
15991;DHT22;8100;50.994;4.538;2022-07-06T04:18:40;11.70;99.90
15991;DHT22;8100;50.994;4.538;2022-07-06T04:21:27;11.80;99.90
15991;DHT22;8100;50.994;4.538;2022-07-06T04:24:14;11.90;99.90
15991;DHT22;8100;50.994;4.538;2022-07-06T04:27:03;12.00;99.90
15991;DHT22;8100;50.994;4.538;2022-07-06T04:29:52;12.00;99.90
15991;DHT22;8100;50.994;4.538;2022-07-06T04:32:39;12.10;99.90
15991;DHT22;8100;50.994;4.538;2022-07-06T04:35:27;12.20;99.90
15991;DHT22;8100;50.994;4.538;2022-07-06T04:38:14;12.10;99.90
15991;DHT22;8100;50.994;4.538;2022-07-06T04:41:01;12.00;99.90
15991;DHT22;8100;50.994;4.538;2022-07-06T04:43:50;12.00;99.90
15991;DHT22;8100;50.994;4.538;2022-07-06T04:46:37;11.90;99.90
15991;DHT22;8100;50.994;4.538;2022-07-06T04:49:25;11.90;99.90
15991;DHT22;8100;50.994;4.538;2022-07-06T04:52:12;11.90;99.90
15991;DHT22;8100;50.994;4.538;2022-07-06T04:54:59;11.90;99.90
15991;DHT22;8100;50.994;4.538;2022-07-06T04:57:47;12.00;99.90
15991;DHT22;8100;50.994;4.538;2022-07-06T05:00:36;12.00;99.90
15991;DHT22;8100;50.994;4.538;2022-07-06T05:03:23;12.10;99.90
15991;DHT22;8100;50.994;4.538;2022-07-06T05:06:10;12.20;99.90
15991;DHT22;8100;50.994;4.538;2022-07-06T05:08:57;12.30;99.90
15991;DHT22;8100;50.994;4.538;2022-07-06T05:11:45;12.40;99.90
15991;DHT22;8100;50.994;4.538;2022-07-06T05:14:32;12.40;99.90
15991;DHT22;8100;50.994;4.538;2022-07-06T05:17:21;12.60;99.90
15991;DHT22;8100;50.994;4.538;2022-07-06T05:20:08;12.70;99.90
15991;DHT22;8100;50.994;4.538;2022-07-06T05:22:56;12.80;99.90
15991;DHT22;8100;50.994;4.538;2022-07-06T05:25:43;12.90;99.90
15991;DHT22;8100;50.994;4.538;2022-07-06T05:28:30;13.10;99.90
15991;DHT22;8100;50.994;4.538;2022-07-06T05:31:17;13.10;99.90
15991;DHT22;8100;50.994;4.538;2022-07-06T05:34:06;13.20;99.90
15991;DHT22;8100;50.994;4.538;2022-07-06T05:36:53;13.30;99.90
15991;DHT22;8100;50.994;4.538;2022-07-06T05:39:40;13.40;99.90
15991;DHT22;8100;50.994;4.538;2022-07-06T05:42:31;13.50;99.90
15991;DHT22;8100;50.994;4.538;2022-07-06T05:45:18;13.60;99.90
15991;DHT22;8100;50.994;4.538;2022-07-06T05:48:05;13.70;99.90
15991;DHT22;8100;50.994;4.538;2022-07-06T05:51:11;13.90;99.90
15991;DHT22;8100;50.994;4.538;2022-07-06T05:53:58;14.00;99.90
15991;DHT22;8100;50.994;4.538;2022-07-06T05:56:45;14.20;99.90
15991;DHT22;8100;50.994;4.538;2022-07-06T05:59:32;14.20;99.90
15991;DHT22;8100;50.994;4.538;2022-07-06T06:02:20;14.50;99.90
15991;DHT22;8100;50.994;4.538;2022-07-06T06:05:09;14.80;99.90
15991;DHT22;8100;50.994;4.538;2022-07-06T06:07:57;14.90;99.90
15991;DHT22;8100;50.994;4.538;2022-07-06T06:10:44;15.00;99.90
15991;DHT22;8100;50.994;4.538;2022-07-06T06:13:32;15.20;99.90
15991;DHT22;8100;50.994;4.538;2022-07-06T06:16:19;15.20;99.90
15991;DHT22;8100;50.994;4.538;2022-07-06T06:19:06;15.40;99.90
15991;DHT22;8100;50.994;4.538;2022-07-06T06:21:53;15.40;99.90
15991;DHT22;8100;50.994;4.538;2022-07-06T06:24:42;15.50;99.90
15991;DHT22;8100;50.994;4.538;2022-07-06T06:27:29;15.70;99.90
15991;DHT22;8100;50.994;4.538;2022-07-06T06:30:16;15.80;99.90
15991;DHT22;8100;50.994;4.538;2022-07-06T06:33:08;15.90;99.90
15991;DHT22;8100;50.994;4.538;2022-07-06T06:35:55;16.00;91.30
15991;DHT22;8100;50.994;4.538;2022-07-06T06:38:42;16.10;93.60
15991;DHT22;8100;50.994;4.538;2022-07-06T06:41:31;16.10;94.20
15991;DHT22;8100;50.994;4.538;2022-07-06T06:44:18;16.00;99.90
15991;DHT22;8100;50.994;4.538;2022-07-06T06:47:08;16.10;99.90
15991;DHT22;8100;50.994;4.538;2022-07-06T06:49:56;16.30;99.90
15991;DHT22;8100;50.994;4.538;2022-07-06T06:52:43;16.40;59.60
15991;DHT22;8100;50.994;4.538;2022-07-06T06:55:30;16.50;43.20
15991;DHT22;8100;50.994;4.538;2022-07-06T06:58:19;16.70;18.90
15991;DHT22;8100;50.994;4.538;2022-07-06T07:01:06;17.00;1.00
15991;DHT22;8100;50.994;4.538;2022-07-06T07:03:53;17.10;1.00
15991;DHT22;8100;50.994;4.538;2022-07-06T07:06:41;17.10;1.00
15991;DHT22;8100;50.994;4.538;2022-07-06T07:09:28;17.10;1.00
15991;DHT22;8100;50.994;4.538;2022-07-06T07:12:15;17.20;1.00
15991;DHT22;8100;50.994;4.538;2022-07-06T07:15:05;17.30;1.00
15991;DHT22;8100;50.994;4.538;2022-07-06T07:17:52;17.30;1.00
15991;DHT22;8100;50.994;4.538;2022-07-06T07:20:39;17.40;1.00
15991;DHT22;8100;50.994;4.538;2022-07-06T07:23:26;17.40;1.00
15991;DHT22;8100;50.994;4.538;2022-07-06T07:26:14;17.50;1.00
15991;DHT22;8100;50.994;4.538;2022-07-06T07:29:01;17.60;1.00
15991;DHT22;8100;50.994;4.538;2022-07-06T07:31:49;17.70;1.00
15991;DHT22;8100;50.994;4.538;2022-07-06T07:34:37;17.70;1.00
15991;DHT22;8100;50.994;4.538;2022-07-06T07:37:24;17.90;1.00
15991;DHT22;8100;50.994;4.538;2022-07-06T07:40:11;17.90;1.00
15991;DHT22;8100;50.994;4.538;2022-07-06T07:42:58;18.10;1.00
15991;DHT22;8100;50.994;4.538;2022-07-06T07:45:46;18.40;1.00
15991;DHT22;8100;50.994;4.538;2022-07-06T07:48:35;18.40;99.90
15991;DHT22;8100;50.994;4.538;2022-07-06T07:51:22;18.30;99.90
15991;DHT22;8100;50.994;4.538;2022-07-06T07:54:09;18.20;90.50
15991;DHT22;8100;50.994;4.538;2022-07-06T07:56:57;18.30;99.90
15991;DHT22;8100;50.994;4.538;2022-07-06T07:59:44;18.40;1.00
15991;DHT22;8100;50.994;4.538;2022-07-06T08:02:31;18.50;1.00
15991;DHT22;8100;50.994;4.538;2022-07-06T08:05:19;18.50;1.00
15991;DHT22;8100;50.994;4.538;2022-07-06T08:08:07;18.80;50.50
15991;DHT22;8100;50.994;4.538;2022-07-06T08:10:54;18.90;1.00
15991;DHT22;8100;50.994;4.538;2022-07-06T08:13:41;19.00;99.90
15991;DHT22;8100;50.994;4.538;2022-07-06T08:16:28;19.00;99.90
15991;DHT22;8100;50.994;4.538;2022-07-06T08:19:16;18.80;1.00
15991;DHT22;8100;50.994;4.538;2022-07-06T08:22:05;18.70;99.90
15991;DHT22;8100;50.994;4.538;2022-07-06T08:24:52;18.70;1.00
15991;DHT22;8100;50.994;4.538;2022-07-06T08:27:40;18.80;99.90
15991;DHT22;8100;50.994;4.538;2022-07-06T08:30:27;18.80;99.90
15991;DHT22;8100;50.994;4.538;2022-07-06T08:33:17;18.90;99.90
15991;DHT22;8100;50.994;4.538;2022-07-06T08:36:04;19.30;1.00
15991;DHT22;8100;50.994;4.538;2022-07-06T08:38:53;19.80;99.90
15991;DHT22;8100;50.994;4.538;2022-07-06T08:41:41;19.80;99.90
15991;DHT22;8100;50.994;4.538;2022-07-06T08:44:30;20.10;99.90
15991;DHT22;8100;50.994;4.538;2022-07-06T08:47:18;20.10;1.00
15991;DHT22;8100;50.994;4.538;2022-07-06T08:50:08;20.40;1.00
15991;DHT22;8100;50.994;4.538;2022-07-06T08:52:56;20.00;1.00
15991;DHT22;8100;50.994;4.538;2022-07-06T08:55:44;19.90;99.90
15991;DHT22;8100;50.994;4.538;2022-07-06T08:58:32;19.90;1.00
15991;DHT22;8100;50.994;4.538;2022-07-06T09:01:19;19.80;1.00
15991;DHT22;8100;50.994;4.538;2022-07-06T09:04:07;20.10;1.00
15991;DHT22;8100;50.994;4.538;2022-07-06T09:06:56;20.10;1.00
15991;DHT22;8100;50.994;4.538;2022-07-06T09:09:44;19.80;99.90
15991;DHT22;8100;50.994;4.538;2022-07-06T09:12:33;19.80;99.90
15991;DHT22;8100;50.994;4.538;2022-07-06T09:15:27;19.90;99.90
15991;DHT22;8100;50.994;4.538;2022-07-06T09:18:15;19.80;1.00
15991;DHT22;8100;50.994;4.538;2022-07-06T09:21:02;20.00;1.00
15991;DHT22;8100;50.994;4.538;2022-07-06T09:23:53;20.10;1.00
15991;DHT22;8100;50.994;4.538;2022-07-06T09:26:41;20.20;1.00
15991;DHT22;8100;50.994;4.538;2022-07-06T09:29:31;20.40;1.00
15991;DHT22;8100;50.994;4.538;2022-07-06T09:32:20;20.80;99.90
15991;DHT22;8100;50.994;4.538;2022-07-06T09:35:07;21.80;99.90
15991;DHT22;8100;50.994;4.538;2022-07-06T09:38:03;22.10;1.00
15991;DHT22;8100;50.994;4.538;2022-07-06T09:40:51;22.70;1.00
15991;DHT22;8100;50.994;4.538;2022-07-06T09:43:38;22.40;1.00
15991;DHT22;8100;50.994;4.538;2022-07-06T09:46:27;22.00;1.00
15991;DHT22;8100;50.994;4.538;2022-07-06T09:49:17;21.20;99.90
15991;DHT22;8100;50.994;4.538;2022-07-06T09:52:06;20.40;99.90
15991;DHT22;8100;50.994;4.538;2022-07-06T09:54:54;20.30;99.90
15991;DHT22;8100;50.994;4.538;2022-07-06T09:57:52;20.00;1.00
15991;DHT22;8100;50.994;4.538;2022-07-06T10:00:41;20.50;1.00
15991;DHT22;8100;50.994;4.538;2022-07-06T10:03:31;20.90;1.00
15991;DHT22;8100;50.994;4.538;2022-07-06T10:06:18;21.00;1.00
15991;DHT22;8100;50.994;4.538;2022-07-06T10:09:07;21.10;1.00
15991;DHT22;8100;50.994;4.538;2022-07-06T10:11:56;21.30;1.00
15991;DHT22;8100;50.994;4.538;2022-07-06T10:14:44;21.90;1.00
15991;DHT22;8100;50.994;4.538;2022-07-06T10:17:33;22.10;1.00
15991;DHT22;8100;50.994;4.538;2022-07-06T10:20:22;22.70;1.00
15991;DHT22;8100;50.994;4.538;2022-07-06T10:23:09;23.10;1.00
15991;DHT22;8100;50.994;4.538;2022-07-06T10:25:57;22.70;99.90
15991;DHT22;8100;50.994;4.538;2022-07-06T10:28:45;22.70;99.90
15991;DHT22;8100;50.994;4.538;2022-07-06T10:31:36;22.60;99.90
15991;DHT22;8100;50.994;4.538;2022-07-06T10:34:24;22.20;99.90
15991;DHT22;8100;50.994;4.538;2022-07-06T10:37:23;22.10;99.90
15991;DHT22;8100;50.994;4.538;2022-07-06T10:40:13;22.20;99.90
15991;DHT22;8100;50.994;4.538;2022-07-06T10:43:18;22.10;99.90
15991;DHT22;8100;50.994;4.538;2022-07-06T10:46:07;21.60;99.90
15991;DHT22;8100;50.994;4.538;2022-07-06T10:48:56;21.70;99.90
15991;DHT22;8100;50.994;4.538;2022-07-06T10:51:44;22.10;99.90
15991;DHT22;8100;50.994;4.538;2022-07-06T10:54:39;22.60;99.90
15991;DHT22;8100;50.994;4.538;2022-07-06T10:57:26;22.20;1.00
15991;DHT22;8100;50.994;4.538;2022-07-06T11:00:15;21.70;1.00
15991;DHT22;8100;50.994;4.538;2022-07-06T11:03:29;22.10;1.00
15991;DHT22;8100;50.994;4.538;2022-07-06T11:06:19;22.40;1.00
15991;DHT22;8100;50.994;4.538;2022-07-06T11:09:07;21.70;1.00
15991;DHT22;8100;50.994;4.538;2022-07-06T11:11:56;21.80;1.00
15991;DHT22;8100;50.994;4.538;2022-07-06T11:14:44;21.80;99.90
15991;DHT22;8100;50.994;4.538;2022-07-06T11:17:32;22.10;1.00
15991;DHT22;8100;50.994;4.538;2022-07-06T11:20:19;22.30;1.00
15991;DHT22;8100;50.994;4.538;2022-07-06T11:23:07;22.30;1.00
15991;DHT22;8100;50.994;4.538;2022-07-06T11:25:54;22.50;1.00
15991;DHT22;8100;50.994;4.538;2022-07-06T11:28:45;22.70;99.90
15991;DHT22;8100;50.994;4.538;2022-07-06T11:31:38;22.60;99.90
15991;DHT22;8100;50.994;4.538;2022-07-06T11:34:26;22.40;1.00
15991;DHT22;8100;50.994;4.538;2022-07-06T11:37:14;22.30;1.00
15991;DHT22;8100;50.994;4.538;2022-07-06T11:40:06;23.00;1.00
15991;DHT22;8100;50.994;4.538;2022-07-06T11:42:54;23.00;1.00
15991;DHT22;8100;50.994;4.538;2022-07-06T11:45:42;23.00;1.00
15991;DHT22;8100;50.994;4.538;2022-07-06T11:48:29;23.20;1.00
15991;DHT22;8100;50.994;4.538;2022-07-06T11:51:17;22.80;1.00
15991;DHT22;8100;50.994;4.538;2022-07-06T11:54:08;22.80;1.00
15991;DHT22;8100;50.994;4.538;2022-07-06T11:56:56;23.10;1.00
15991;DHT22;8100;50.994;4.538;2022-07-06T11:59:44;22.70;1.00
15991;DHT22;8100;50.994;4.538;2022-07-06T12:02:34;22.80;1.00
15991;DHT22;8100;50.994;4.538;2022-07-06T12:05:29;22.50;1.00
15991;DHT22;8100;50.994;4.538;2022-07-06T12:08:16;22.40;1.00
15991;DHT22;8100;50.994;4.538;2022-07-06T12:11:03;22.00;1.00
15991;DHT22;8100;50.994;4.538;2022-07-06T12:13:52;21.90;1.00
15991;DHT22;8100;50.994;4.538;2022-07-06T12:16:39;21.90;1.00
15991;DHT22;8100;50.994;4.538;2022-07-06T12:19:28;21.80;1.00
15991;DHT22;8100;50.994;4.538;2022-07-06T12:22:24;22.00;1.00
15991;DHT22;8100;50.994;4.538;2022-07-06T12:25:12;22.10;1.00
15991;DHT22;8100;50.994;4.538;2022-07-06T12:28:22;22.00;1.00
15991;DHT22;8100;50.994;4.538;2022-07-06T12:31:10;22.60;1.00
15991;DHT22;8100;50.994;4.538;2022-07-06T12:33:58;22.80;1.00
15991;DHT22;8100;50.994;4.538;2022-07-06T12:36:47;22.90;1.00
15991;DHT22;8100;50.994;4.538;2022-07-06T12:39:41;23.00;1.00
15991;DHT22;8100;50.994;4.538;2022-07-06T12:42:28;22.60;1.00
15991;DHT22;8100;50.994;4.538;2022-07-06T12:45:16;22.10;1.00
15991;DHT22;8100;50.994;4.538;2022-07-06T12:48:04;22.60;49.10
15991;DHT22;8100;50.994;4.538;2022-07-06T12:50:52;22.90;1.00
15991;DHT22;8100;50.994;4.538;2022-07-06T12:53:40;23.70;99.90
15991;DHT22;8100;50.994;4.538;2022-07-06T12:56:27;23.70;99.90
15991;DHT22;8100;50.994;4.538;2022-07-06T12:59:21;23.20;1.00
15991;DHT22;8100;50.994;4.538;2022-07-06T13:02:17;22.80;1.00
15991;DHT22;8100;50.994;4.538;2022-07-06T13:05:07;22.40;1.00
15991;DHT22;8100;50.994;4.538;2022-07-06T13:07:57;22.80;1.00
15991;DHT22;8100;50.994;4.538;2022-07-06T13:10:45;23.60;1.00
15991;DHT22;8100;50.994;4.538;2022-07-06T13:13:33;23.30;1.00
15991;DHT22;8100;50.994;4.538;2022-07-06T13:16:29;22.90;1.00
15991;DHT22;8100;50.994;4.538;2022-07-06T13:19:20;22.70;1.00
15991;DHT22;8100;50.994;4.538;2022-07-06T13:22:07;23.00;1.00
15991;DHT22;8100;50.994;4.538;2022-07-06T13:24:54;23.10;1.00
15991;DHT22;8100;50.994;4.538;2022-07-06T13:27:43;23.40;1.00
15991;DHT22;8100;50.994;4.538;2022-07-06T13:30:30;23.70;99.90
15991;DHT22;8100;50.994;4.538;2022-07-06T13:33:17;24.00;1.00
15991;DHT22;8100;50.994;4.538;2022-07-06T13:36:05;23.30;1.00
15991;DHT22;8100;50.994;4.538;2022-07-06T13:38:52;23.20;1.00
15991;DHT22;8100;50.994;4.538;2022-07-06T13:41:39;23.40;1.00
15991;DHT22;8100;50.994;4.538;2022-07-06T13:44:28;23.80;1.00
15991;DHT22;8100;50.994;4.538;2022-07-06T13:47:15;24.10;1.00
15991;DHT22;8100;50.994;4.538;2022-07-06T13:50:02;23.90;1.00
15991;DHT22;8100;50.994;4.538;2022-07-06T13:52:50;23.60;1.00
15991;DHT22;8100;50.994;4.538;2022-07-06T13:55:37;23.20;1.00
15991;DHT22;8100;50.994;4.538;2022-07-06T13:58:25;23.20;1.00
15991;DHT22;8100;50.994;4.538;2022-07-06T14:01:13;23.50;1.00
15991;DHT22;8100;50.994;4.538;2022-07-06T14:04:01;23.40;1.00
15991;DHT22;8100;50.994;4.538;2022-07-06T14:06:48;23.50;1.00
15991;DHT22;8100;50.994;4.538;2022-07-06T14:09:35;23.50;1.00
15991;DHT22;8100;50.994;4.538;2022-07-06T14:12:22;23.60;1.00
15991;DHT22;8100;50.994;4.538;2022-07-06T14:15:10;23.60;1.00
15991;DHT22;8100;50.994;4.538;2022-07-06T14:17:59;24.30;1.00
15991;DHT22;8100;50.994;4.538;2022-07-06T14:20:47;24.10;1.00
15991;DHT22;8100;50.994;4.538;2022-07-06T14:23:35;24.20;1.00
15991;DHT22;8100;50.994;4.538;2022-07-06T14:26:22;24.80;1.00
15991;DHT22;8100;50.994;4.538;2022-07-06T14:29:09;26.70;1.00
15991;DHT22;8100;50.994;4.538;2022-07-06T14:31:56;25.90;1.00
15991;DHT22;8100;50.994;4.538;2022-07-06T14:34:45;26.90;1.00
15991;DHT22;8100;50.994;4.538;2022-07-06T14:37:32;27.20;1.00
15991;DHT22;8100;50.994;4.538;2022-07-06T14:40:19;25.50;99.90
15991;DHT22;8100;50.994;4.538;2022-07-06T14:43:07;24.90;99.90
15991;DHT22;8100;50.994;4.538;2022-07-06T14:45:54;26.10;99.90
15991;DHT22;8100;50.994;4.538;2022-07-06T14:48:41;28.90;1.00
15991;DHT22;8100;50.994;4.538;2022-07-06T14:51:30;29.90;99.90
15991;DHT22;8100;50.994;4.538;2022-07-06T14:54:17;29.90;99.90
15991;DHT22;8100;50.994;4.538;2022-07-06T14:57:05;29.30;1.00
15991;DHT22;8100;50.994;4.538;2022-07-06T14:59:54;30.00;1.00
15991;DHT22;8100;50.994;4.538;2022-07-06T15:02:41;30.70;1.00
15991;DHT22;8100;50.994;4.538;2022-07-06T15:05:28;31.60;1.00
15991;DHT22;8100;50.994;4.538;2022-07-06T15:08:17;30.80;1.00
15991;DHT22;8100;50.994;4.538;2022-07-06T15:11:04;31.00;1.00
15991;DHT22;8100;50.994;4.538;2022-07-06T15:13:51;31.10;1.00
15991;DHT22;8100;50.994;4.538;2022-07-06T15:16:38;28.40;99.90
15991;DHT22;8100;50.994;4.538;2022-07-06T15:19:25;28.50;99.90
15991;DHT22;8100;50.994;4.538;2022-07-06T15:22:13;28.10;99.90
15991;DHT22;8100;50.994;4.538;2022-07-06T15:25:02;27.00;99.90
15991;DHT22;8100;50.994;4.538;2022-07-06T15:27:49;26.80;99.90
15991;DHT22;8100;50.994;4.538;2022-07-06T15:30:36;26.40;99.90
15991;DHT22;8100;50.994;4.538;2022-07-06T15:33:24;25.40;99.90
15991;DHT22;8100;50.994;4.538;2022-07-06T15:36:11;24.90;99.90
15991;DHT22;8100;50.994;4.538;2022-07-06T15:38:58;24.70;99.90
15991;DHT22;8100;50.994;4.538;2022-07-06T15:41:47;25.30;99.90
15991;DHT22;8100;50.994;4.538;2022-07-06T15:44:34;25.20;99.90
15991;DHT22;8100;50.994;4.538;2022-07-06T15:47:21;25.20;99.90
15991;DHT22;8100;50.994;4.538;2022-07-06T15:50:10;24.60;99.90
15991;DHT22;8100;50.994;4.538;2022-07-06T15:52:57;24.20;99.90
15991;DHT22;8100;50.994;4.538;2022-07-06T15:55:44;24.10;99.90
15991;DHT22;8100;50.994;4.538;2022-07-06T15:58:33;24.60;99.90
15991;DHT22;8100;50.994;4.538;2022-07-06T16:01:20;27.00;1.00
15991;DHT22;8100;50.994;4.538;2022-07-06T16:04:07;28.50;1.00
15991;DHT22;8100;50.994;4.538;2022-07-06T16:06:56;29.40;1.00
15991;DHT22;8100;50.994;4.538;2022-07-06T16:09:43;29.60;1.00
15991;DHT22;8100;50.994;4.538;2022-07-06T16:12:31;27.90;99.90
15991;DHT22;8100;50.994;4.538;2022-07-06T16:15:19;26.80;99.90
15991;DHT22;8100;50.994;4.538;2022-07-06T16:18:06;28.00;99.90
15991;DHT22;8100;50.994;4.538;2022-07-06T16:20:54;27.50;99.90
15991;DHT22;8100;50.994;4.538;2022-07-06T16:23:41;26.60;99.90
15991;DHT22;8100;50.994;4.538;2022-07-06T16:26:28;26.10;99.90
15991;DHT22;8100;50.994;4.538;2022-07-06T16:29:16;27.10;99.90
15991;DHT22;8100;50.994;4.538;2022-07-06T16:32:05;27.80;99.90
15991;DHT22;8100;50.994;4.538;2022-07-06T16:34:52;26.90;99.90
15991;DHT22;8100;50.994;4.538;2022-07-06T16:37:39;25.90;99.90
15991;DHT22;8100;50.994;4.538;2022-07-06T16:40:26;25.50;99.90
15991;DHT22;8100;50.994;4.538;2022-07-06T16:43:14;25.20;99.90
15991;DHT22;8100;50.994;4.538;2022-07-06T16:46:02;24.70;99.90
15991;DHT22;8100;50.994;4.538;2022-07-06T16:48:50;24.20;99.90
15991;DHT22;8100;50.994;4.538;2022-07-06T16:51:38;24.10;99.90
15991;DHT22;8100;50.994;4.538;2022-07-06T16:54:25;24.00;99.90
15991;DHT22;8100;50.994;4.538;2022-07-06T16:57:12;24.10;99.90
15991;DHT22;8100;50.994;4.538;2022-07-06T16:59:59;24.30;99.90
15991;DHT22;8100;50.994;4.538;2022-07-06T17:02:46;24.40;99.90
15991;DHT22;8100;50.994;4.538;2022-07-06T17:05:36;24.20;99.90
15991;DHT22;8100;50.994;4.538;2022-07-06T17:08:23;24.10;99.90
15991;DHT22;8100;50.994;4.538;2022-07-06T17:11:11;24.30;99.90
15991;DHT22;8100;50.994;4.538;2022-07-06T17:13:58;24.00;99.90
15991;DHT22;8100;50.994;4.538;2022-07-06T17:16:45;23.80;99.90
15991;DHT22;8100;50.994;4.538;2022-07-06T17:19:32;23.70;99.90
15991;DHT22;8100;50.994;4.538;2022-07-06T17:22:21;23.80;99.90
15991;DHT22;8100;50.994;4.538;2022-07-06T17:25:08;24.00;1.00
15991;DHT22;8100;50.994;4.538;2022-07-06T17:27:56;24.00;1.00
15991;DHT22;8100;50.994;4.538;2022-07-06T17:30:43;23.70;1.00
15991;DHT22;8100;50.994;4.538;2022-07-06T17:33:30;23.40;1.00
15991;DHT22;8100;50.994;4.538;2022-07-06T17:36:18;23.30;1.00
15991;DHT22;8100;50.994;4.538;2022-07-06T17:39:06;23.10;99.90
15991;DHT22;8100;50.994;4.538;2022-07-06T17:41:53;23.30;99.90
15991;DHT22;8100;50.994;4.538;2022-07-06T17:44:40;23.20;1.00
15991;DHT22;8100;50.994;4.538;2022-07-06T17:47:28;23.20;1.00
15991;DHT22;8100;50.994;4.538;2022-07-06T17:50:15;23.00;1.00
15991;DHT22;8100;50.994;4.538;2022-07-06T17:53:02;22.80;99.90
15991;DHT22;8100;50.994;4.538;2022-07-06T17:55:51;22.60;99.90
15991;DHT22;8100;50.994;4.538;2022-07-06T17:58:39;22.60;1.00
15991;DHT22;8100;50.994;4.538;2022-07-06T18:01:26;22.50;99.90
15991;DHT22;8100;50.994;4.538;2022-07-06T18:04:13;22.50;1.00
15991;DHT22;8100;50.994;4.538;2022-07-06T18:07:00;22.50;1.00